createdAt,value
2023-04-19T00:00:44.173Z,57.10
2023-04-19T00:02:06.807Z,57.37
2023-04-19T00:03:31.524Z,58.76
2023-04-19T00:04:53.961Z,60.29
2023-04-19T00:06:18.023Z,61.88
2023-04-19T00:07:53.456Z,63.92
2023-04-19T00:09:22.197Z,64.46
2023-04-19T00:11:20.845Z,62.25
2023-04-19T00:13:02.025Z,59.34
2023-04-19T00:14:27.905Z,56.99
2023-04-19T00:15:51.929Z,57.14
2023-04-19T00:17:27.271Z,58.66
2023-04-19T00:18:49.323Z,60.09
2023-04-19T00:20:24.454Z,61.62
2023-04-19T00:22:00.944Z,64.14
2023-04-19T00:23:55.937Z,64.49
2023-04-19T00:25:36.780Z,61.99
2023-04-19T00:27:13.354Z,59.42
2023-04-19T00:28:42.203Z,57.67
2023-04-19T00:30:04.355Z,57.74
2023-04-19T00:31:45.886Z,59.02
2023-04-19T00:33:40.210Z,61.47
2023-04-19T00:35:16.056Z,64.59
2023-04-19T00:37:01.038Z,64.85
2023-04-19T00:38:36.241Z,62.54
2023-04-19T00:40:12.086Z,60.45
2023-04-19T00:41:53.213Z,58.50
2023-04-19T00:43:26.085Z,57.85
2023-04-19T00:45:11.618Z,59.34
2023-04-19T00:46:52.186Z,61.67
2023-04-19T00:48:45.629Z,64.62
2023-04-19T00:50:31.448Z,64.92
2023-04-19T00:52:17.318Z,62.68
2023-04-19T00:53:39.235Z,60.47
2023-04-19T00:55:08.759Z,58.89
2023-04-19T00:56:42.468Z,57.69
2023-04-19T00:58:28.010Z,58.98
2023-04-19T01:00:10.253Z,61.27
2023-04-19T01:01:43.601Z,64.24
2023-04-19T01:03:24.791Z,65.50
2023-04-19T01:05:10.105Z,63.85
2023-04-19T01:06:43.298Z,61.81
2023-04-19T01:08:08.764Z,60.07
2023-04-19T01:09:50.427Z,58.59
2023-04-19T01:11:24.006Z,58.40
2023-04-19T01:13:17.842Z,60.34
2023-04-19T01:14:53.958Z,63.18
2023-04-19T01:16:48.234Z,65.45
2023-04-19T01:18:33.500Z,63.83
2023-04-19T01:20:07.746Z,61.76
2023-04-19T01:21:57.308Z,60.06
2023-04-19T01:23:50.696Z,57.90
2023-04-19T01:25:32.325Z,58.25
2023-04-19T01:27:26.668Z,60.73
2023-04-19T01:29:12.055Z,64.00
2023-04-19T01:30:57.247Z,65.26
2023-04-19T01:32:28.426Z,63.61
2023-04-19T01:34:24.245Z,61.45
2023-04-19T01:36:16.997Z,59.59
2023-04-19T01:38:02.668Z,57.83
2023-04-19T01:39:31.808Z,58.87
2023-04-19T01:41:12.531Z,61.11
2023-04-19T01:42:57.783Z,63.90
2023-04-19T01:44:50.588Z,65.46
2023-04-19T01:46:24.121Z,62.54
2023-04-19T01:48:04.990Z,60.43
2023-04-19T01:49:47.069Z,58.59
2023-04-19T01:51:23.034Z,58.02
2023-04-19T01:52:56.908Z,59.54
2023-04-19T01:54:33.570Z,61.47
2023-04-19T01:56:20.484Z,64.84
2023-04-19T01:57:54.858Z,65.17
2023-04-19T01:59:33.699Z,63.09
2023-04-19T02:01:21.339Z,60.27
2023-04-19T02:03:03.480Z,57.92
2023-04-19T02:04:43.453Z,57.82
2023-04-19T02:06:16.626Z,59.89
2023-04-19T02:08:02.227Z,62.02
2023-04-19T02:09:42.489Z,64.61
2023-04-19T02:11:18.420Z,64.97
2023-04-19T02:13:03.691Z,62.51
2023-04-19T02:14:36.921Z,59.90
2023-04-19T02:16:10.910Z,58.26
2023-04-19T02:17:46.707Z,58.20
2023-04-19T02:19:22.124Z,59.59
2023-04-19T02:21:07.679Z,62.09
2023-04-19T02:22:53.746Z,65.03
2023-04-19T02:24:28.175Z,64.61
2023-04-19T02:26:04.235Z,62.75
2023-04-19T02:27:39.597Z,60.63
2023-04-19T02:29:21.062Z,58.61
2023-04-19T02:30:49.812Z,57.60
2023-04-19T02:32:21.062Z,59.23
2023-04-19T02:33:50.089Z,61.17
2023-04-19T02:35:37.166Z,63.82
2023-04-19T02:37:20.373Z,65.25
2023-04-19T02:39:06.085Z,63.48
2023-04-19T02:40:52.526Z,60.91
2023-04-19T02:42:45.629Z,58.54
2023-04-19T02:44:38.919Z,57.89
2023-04-19T02:46:01.027Z,59.78
2023-04-19T02:47:46.458Z,61.83
2023-04-19T02:49:19.732Z,64.31
2023-04-19T02:51:04.735Z,64.12
2023-04-19T02:52:49.848Z,61.68
2023-04-19T02:54:42.542Z,59.29
2023-04-19T02:56:18.783Z,57.34
2023-04-19T02:57:56.387Z,57.82
2023-04-19T02:59:29.441Z,59.85
2023-04-19T03:01:19.489Z,61.70
2023-04-19T03:03:05.596Z,64.32
2023-04-19T03:04:41.553Z,64.34
2023-04-19T03:06:18.619Z,62.39
2023-04-19T03:07:52.246Z,59.40
2023-04-19T03:09:17.733Z,57.49
2023-04-19T03:10:52.008Z,57.82
2023-04-19T03:12:32.933Z,59.66
2023-04-19T03:14:26.862Z,61.85
2023-04-19T03:15:51.512Z,64.73
2023-04-19T03:17:39.173Z,64.53
2023-04-19T03:21:42.842Z,58.78
2023-04-19T03:23:16.424Z,57.19
2023-04-19T03:24:52.288Z,58.62
2023-04-19T03:26:28.293Z,60.84
2023-04-19T03:28:03.632Z,63.16
2023-04-19T03:30:20.179Z,64.57
2023-04-19T03:31:56.507Z,62.34
2023-04-19T03:33:41.396Z,59.96
2023-04-19T03:35:26.381Z,57.42
2023-04-19T03:36:52.151Z,57.66
2023-04-19T03:38:39.314Z,59.52
2023-04-19T03:40:16.181Z,61.64
2023-04-19T03:41:49.869Z,64.55
2023-04-19T03:43:46.915Z,65.03
2023-04-19T03:45:22.668Z,62.49
2023-04-19T03:46:58.921Z,60.19
2023-04-19T03:48:44.914Z,57.90
2023-04-19T03:50:18.670Z,57.42
2023-04-19T03:51:54.446Z,58.97
2023-04-19T03:53:28.990Z,61.13
2023-04-19T03:55:05.175Z,63.52
2023-04-19T03:56:34.568Z,65.28
2023-04-19T03:58:11.150Z,64.02
2023-04-19T03:59:43.065Z,61.42
2023-04-19T04:01:12.423Z,59.28
2023-04-19T04:02:52.814Z,57.15
2023-04-19T04:04:19.131Z,57.53
2023-04-19T04:05:54.820Z,59.12
2023-04-19T04:07:28.038Z,61.41
2023-04-19T04:09:09.926Z,63.74
2023-04-19T04:10:45.597Z,65.22
2023-04-19T04:12:12.728Z,63.50
2023-04-19T04:13:46.536Z,61.44
2023-04-19T04:15:26.065Z,58.86
2023-04-19T04:16:48.642Z,57.44
2023-04-19T04:18:29.667Z,58.47
2023-04-19T04:20:15.216Z,61.00
2023-04-19T04:21:37.032Z,62.73
2023-04-19T04:23:18.564Z,64.96
2023-04-19T04:24:44.948Z,64.24
2023-04-19T04:26:30.746Z,61.31
2023-04-19T04:28:23.372Z,58.52
2023-04-19T04:29:49.042Z,57.15
2023-04-19T04:31:34.917Z,58.38
2023-04-19T04:33:01.220Z,60.38
2023-04-19T04:34:52.776Z,62.61
2023-04-19T04:36:44.752Z,65.38
2023-04-19T04:38:24.528Z,64.09
2023-04-19T04:39:59.800Z,61.39
2023-04-19T04:41:22.830Z,59.58
2023-04-19T04:43:05.846Z,57.49
2023-04-19T04:44:50.761Z,57.90
2023-04-19T04:46:33.643Z,59.78
2023-04-19T04:48:14.721Z,61.74
2023-04-19T04:49:59.391Z,64.51
2023-04-19T04:51:35.750Z,64.67
2023-04-19T04:53:10.538Z,62.53
2023-04-19T04:54:53.538Z,60.11
2023-04-19T04:56:32.692Z,57.91
2023-04-19T04:58:06.628Z,57.74
2023-04-19T05:00:11.222Z,60.02
2023-04-19T05:02:01.539Z,62.44
2023-04-19T05:03:34.740Z,64.68
2023-04-19T05:05:11.235Z,63.93
2023-04-19T05:06:44.437Z,61.88
2023-04-19T05:08:29.572Z,59.08
2023-04-19T05:10:09.552Z,57.08
2023-04-19T05:11:50.203Z,58.22
2023-04-19T05:13:36.098Z,60.32
2023-04-19T05:15:21.465Z,62.64
2023-04-19T05:16:50.860Z,65.28
2023-04-19T05:18:34.407Z,64.62
2023-04-19T05:20:19.147Z,61.90
2023-04-19T05:21:52.862Z,58.85
2023-04-19T05:23:14.538Z,57.38
2023-04-19T05:24:51.717Z,58.11
2023-04-19T05:26:27.794Z,60.04
2023-04-19T05:28:01.205Z,61.78
2023-04-19T05:29:40.111Z,64.88
2023-04-19T05:31:31.455Z,64.77
2023-04-19T05:33:49.467Z,60.80
2023-04-19T05:35:22.545Z,58.67
2023-04-19T05:37:03.919Z,57.39
2023-04-19T05:38:44.940Z,58.64
2023-04-19T05:40:29.642Z,60.43
2023-04-19T05:42:10.971Z,63.04
2023-04-19T05:43:56.170Z,65.05
2023-04-19T05:45:37.193Z,63.14
2023-04-19T05:47:18.498Z,60.46
2023-04-19T05:49:02.348Z,57.70
2023-04-19T05:50:54.376Z,57.37
2023-04-19T05:52:40.091Z,59.81
2023-04-19T05:54:13.791Z,61.43
2023-04-19T05:55:55.224Z,64.05
2023-04-19T05:57:18.671Z,64.99
2023-04-19T05:59:03.903Z,63.16
2023-04-19T06:00:39.365Z,60.45
2023-04-19T06:02:16.148Z,58.36
2023-04-19T06:04:04.741Z,57.51
2023-04-19T06:05:40.307Z,59.06
2023-04-19T06:07:30.261Z,60.77
2023-04-19T06:09:06.824Z,62.74
2023-04-19T06:10:56.848Z,64.80
2023-04-19T06:12:20.292Z,63.72
2023-04-19T06:14:00.668Z,61.04
2023-04-19T06:15:45.419Z,58.29
2023-04-19T06:17:26.693Z,57.35
2023-04-19T06:19:08.482Z,58.88
2023-04-19T06:20:53.324Z,60.99
2023-04-19T06:22:28.924Z,63.65
2023-04-19T06:24:09.861Z,65.53
2023-04-19T06:25:55.234Z,63.48
2023-04-19T06:27:28.404Z,60.91
2023-04-19T06:29:02.021Z,58.42
2023-04-19T06:30:53.487Z,57.35
2023-04-19T06:32:29.599Z,58.88
2023-04-19T06:34:15.559Z,60.92
2023-04-19T06:35:39.608Z,62.97
2023-04-19T06:37:15.933Z,65.04
2023-04-19T06:38:53.409Z,64.01
2023-04-19T06:40:22.423Z,61.33
2023-04-19T06:42:07.351Z,59.25
2023-04-19T06:43:43.810Z,57.31
2023-04-19T06:45:17.529Z,58.01
2023-04-19T06:46:43.636Z,59.68
2023-04-19T06:48:19.708Z,61.93
2023-04-19T06:50:05.157Z,64.46
2023-04-19T06:51:51.082Z,63.94
2023-04-19T06:53:26.766Z,61.61
2023-04-19T06:55:07.794Z,59.36
2023-04-19T06:56:31.743Z,57.02
2023-04-19T06:58:13.254Z,57.56
2023-04-19T06:59:48.557Z,59.23
2023-04-19T07:01:20.212Z,60.99
2023-04-19T07:02:53.794Z,62.64
2023-04-19T07:04:23.695Z,65.01
2023-04-19T07:06:04.844Z,64.26
2023-04-19T07:07:49.834Z,61.58
2023-04-19T07:09:23.293Z,58.80
2023-04-19T07:10:58.681Z,56.92
2023-04-19T07:12:45.615Z,57.97
2023-04-19T07:14:23.467Z,60.03
2023-04-19T07:15:59.789Z,62.48
2023-04-19T07:17:33.637Z,64.73
2023-04-19T07:19:19.211Z,63.93
2023-04-19T07:20:44.608Z,61.71
2023-04-19T07:22:29.630Z,59.15
2023-04-19T07:24:16.582Z,56.93
2023-04-19T07:25:52.488Z,58.07
2023-04-19T07:27:26.222Z,59.50
2023-04-19T07:29:02.255Z,61.50
2023-04-19T07:30:26.085Z,64.03
2023-04-19T07:32:11.637Z,65.35
2023-04-19T07:33:45.117Z,63.02
2023-04-19T07:35:29.981Z,60.54
2023-04-19T07:37:03.669Z,57.88
2023-04-19T07:38:39.185Z,57.33
2023-04-19T07:40:15.687Z,58.52
2023-04-19T07:41:48.792Z,60.33
2023-04-19T07:43:30.191Z,62.37
2023-04-19T07:45:11.582Z,65.19
2023-04-19T07:46:58.489Z,64.42
2023-04-19T07:48:27.328Z,61.84
2023-04-19T07:50:17.339Z,59.18
2023-04-19T07:52:02.577Z,57.50
2023-04-19T07:53:26.221Z,58.32
2023-04-19T07:55:11.626Z,60.22
2023-04-19T07:56:51.964Z,62.47
2023-04-19T07:58:16.870Z,64.78
2023-04-19T07:59:50.604Z,64.59
2023-04-19T08:01:32.687Z,61.99
2023-04-19T08:03:00.483Z,59.60
2023-04-19T08:04:45.892Z,57.31
2023-04-19T08:06:22.759Z,57.50
2023-04-19T08:07:49.054Z,59.13
2023-04-19T08:09:13.863Z,61.03
2023-04-19T08:10:54.906Z,63.53
2023-04-19T08:12:36.476Z,65.33
2023-04-19T08:14:15.199Z,63.82
2023-04-19T08:17:28.043Z,58.55
2023-04-19T08:18:52.826Z,57.45
2023-04-19T08:20:14.573Z,58.61
2023-04-19T08:21:50.876Z,60.52
2023-04-19T08:23:24.212Z,62.11
2023-04-19T08:25:01.335Z,64.93
2023-04-19T08:26:23.052Z,65.10
2023-04-19T08:27:47.102Z,63.33
2023-04-19T08:29:11.569Z,61.35
2023-04-19T08:30:44.472Z,59.46
2023-04-19T08:32:18.327Z,57.43
2023-04-19T08:33:40.371Z,57.57
2023-04-19T08:35:16.521Z,58.96
2023-04-19T08:37:03.986Z,61.48
2023-04-19T08:38:43.009Z,64.00
2023-04-19T08:40:11.516Z,65.47
2023-04-19T08:41:50.291Z,63.25
2023-04-19T08:43:20.713Z,60.48
2023-04-19T08:45:05.705Z,58.64
2023-04-19T08:46:26.905Z,57.20
2023-04-19T08:48:00.870Z,58.48
2023-04-19T08:49:23.227Z,60.44
2023-04-19T08:51:00.579Z,62.47
2023-04-19T08:52:26.521Z,64.86
2023-04-19T08:54:00.625Z,64.13
2023-04-19T08:55:22.142Z,62.49
2023-04-19T08:56:51.255Z,60.30
2023-04-19T08:58:26.296Z,58.50
2023-04-19T09:00:07.566Z,57.29
2023-04-19T09:01:50.266Z,58.67
2023-04-19T09:03:25.963Z,61.31
2023-04-19T09:04:59.126Z,63.39
2023-04-19T09:06:45.566Z,65.01
2023-04-19T09:08:30.539Z,62.80
2023-04-19T09:10:04.977Z,60.22
2023-04-19T09:11:38.910Z,58.52
2023-04-19T09:13:13.680Z,57.51
2023-04-19T09:14:37.212Z,58.46
2023-04-19T09:16:02.257Z,60.15
2023-04-19T09:17:33.923Z,62.63
2023-04-19T09:19:08.604Z,64.55
2023-04-19T09:20:47.175Z,63.06
2023-04-19T09:22:22.858Z,60.79
2023-04-19T09:23:46.459Z,58.47
2023-04-19T09:25:41.886Z,57.35
2023-04-19T09:27:17.684Z,58.52
2023-04-19T09:28:52.900Z,60.49
2023-04-19T09:30:46.833Z,62.72
2023-04-19T09:32:28.473Z,65.69
2023-04-19T09:34:13.683Z,63.99
2023-04-19T09:35:59.265Z,61.15
2023-04-19T09:38:04.048Z,59.08
2023-04-19T09:39:27.401Z,57.18
2023-04-19T09:41:08.623Z,58.70
2023-04-19T09:42:50.977Z,60.67
2023-04-19T09:46:27.011Z,65.25
2023-04-19T09:47:50.903Z,63.23
2023-04-19T09:49:23.047Z,60.84
2023-04-19T09:51:07.640Z,58.44
2023-04-19T09:52:55.009Z,56.91
2023-04-19T09:54:43.141Z,58.57
2023-04-19T09:56:12.915Z,60.81
2023-04-19T09:57:47.400Z,62.52
2023-04-19T09:59:23.589Z,65.19
2023-04-19T10:00:51.340Z,64.71
2023-04-19T10:02:14.920Z,62.55
2023-04-19T10:03:52.115Z,60.72
2023-04-19T10:05:25.173Z,57.94
2023-04-19T10:07:25.417Z,57.41
2023-04-19T10:08:54.295Z,59.15
2023-04-19T10:10:41.972Z,61.30
2023-04-19T10:13:44.512Z,65.25
2023-04-19T10:15:39.807Z,63.52
2023-04-19T10:17:25.570Z,60.21
2023-04-19T10:18:59.025Z,58.10
2023-04-19T10:20:27.802Z,57.79
2023-04-19T10:22:13.093Z,59.03
2023-04-19T10:23:41.930Z,60.98
2023-04-19T10:25:15.962Z,63.26
2023-04-19T10:26:45.157Z,64.72
2023-04-19T10:28:18.706Z,63.62
2023-04-19T10:29:40.188Z,61.62
2023-04-19T10:31:23.505Z,59.68
2023-04-19T10:33:08.943Z,57.30
2023-04-19T10:34:31.175Z,57.64
2023-04-19T10:35:55.422Z,59.35
2023-04-19T10:37:19.202Z,61.27
2023-04-19T10:38:43.433Z,63.30
2023-04-19T10:40:20.129Z,65.24
2023-04-19T10:41:55.632Z,64.04
2023-04-19T10:43:29.298Z,61.30
2023-04-19T10:45:05.041Z,59.42
2023-04-19T10:46:29.945Z,57.33
2023-04-19T10:47:53.964Z,57.59
2023-04-19T10:49:27.077Z,59.56
2023-04-19T10:50:48.556Z,61.55
2023-04-19T10:52:29.829Z,64.00
2023-04-19T10:53:53.917Z,63.99
2023-04-19T10:55:15.990Z,62.11
2023-04-19T10:56:52.587Z,60.28
2023-04-19T10:58:37.739Z,57.91
2023-04-19T11:00:08.010Z,57.35
2023-04-19T11:01:42.792Z,58.82
2023-04-19T11:03:19.057Z,60.62
2023-04-19T11:04:43.060Z,62.42
2023-04-19T11:06:18.840Z,65.48
2023-04-19T11:07:49.518Z,64.31
2023-04-19T11:09:35.051Z,61.83
2023-04-19T11:10:58.986Z,59.32
2023-04-19T11:12:20.984Z,57.81
2023-04-19T11:13:42.510Z,57.95
2023-04-19T11:15:18.418Z,58.72
2023-04-19T11:16:46.005Z,60.39
2023-04-19T11:18:41.238Z,62.27
2023-04-19T11:20:36.407Z,64.12
2023-04-19T11:22:31.270Z,61.54
2023-04-19T11:24:07.306Z,58.52
2023-04-19T11:25:52.109Z,57.50
2023-04-19T11:27:45.486Z,58.75
2023-04-19T11:29:07.478Z,59.76
2023-04-19T11:30:40.377Z,60.81
2023-04-19T11:32:02.531Z,61.87
2023-04-19T11:33:37.649Z,63.34
2023-04-19T11:35:23.265Z,64.68
2023-04-19T11:36:59.451Z,61.52
2023-04-19T11:38:35.304Z,58.42
2023-04-19T11:39:57.768Z,56.62
2023-04-19T11:41:21.499Z,57.22
2023-04-19T11:42:53.481Z,59.18
2023-04-19T11:44:28.814Z,60.40
2023-04-19T11:46:02.276Z,61.72
2023-04-19T11:47:35.013Z,63.86
2023-04-19T11:48:59.312Z,65.03
2023-04-19T11:50:28.541Z,63.50
2023-04-19T11:52:05.817Z,60.03
2023-04-19T11:53:51.301Z,56.96
2023-04-19T11:55:20.855Z,56.29
2023-04-19T11:56:56.387Z,57.70
2023-04-19T11:58:29.759Z,59.34
2023-04-19T12:00:05.465Z,60.89
2023-04-19T12:01:35.789Z,62.32
2023-04-19T12:03:09.731Z,64.45
2023-04-19T12:04:34.168Z,64.15
2023-04-19T12:06:10.486Z,62.22
2023-04-19T12:07:46.270Z,59.78
2023-04-19T12:09:21.757Z,56.80
2023-04-19T12:10:46.561Z,57.17
2023-04-19T12:12:22.853Z,57.72
2023-04-19T12:13:56.218Z,59.00
2023-04-19T12:15:18.454Z,60.97
2023-04-19T12:17:03.725Z,62.34
2023-04-19T12:18:56.559Z,64.93
2023-04-19T12:20:51.333Z,63.22
2023-04-19T12:22:25.255Z,60.15
2023-04-19T12:24:16.863Z,57.59
2023-04-19T12:25:50.097Z,57.49
2023-04-19T12:27:25.790Z,58.96
2023-04-19T12:28:49.793Z,60.48
2023-04-19T12:30:23.254Z,62.43
2023-04-19T12:31:44.711Z,64.26
2023-04-19T12:33:07.020Z,64.59
2023-04-19T12:34:33.388Z,62.64
2023-04-19T12:35:55.137Z,59.99
2023-04-19T12:37:24.530Z,58.12
2023-04-19T12:39:09.949Z,57.42
2023-04-19T12:40:43.244Z,58.14
2023-04-19T12:42:07.955Z,60.09
2023-04-19T12:43:31.902Z,61.43
2023-04-19T12:45:01.233Z,62.92
2023-04-19T12:46:36.681Z,64.12
2023-04-19T12:47:58.621Z,62.68
2023-04-19T12:49:22.319Z,60.39
2023-04-19T12:50:55.988Z,57.56
2023-04-19T12:52:17.632Z,56.98
2023-04-19T12:54:05.237Z,57.89
2023-04-19T12:55:48.240Z,59.75
2023-04-19T12:57:35.437Z,61.75
2023-04-19T12:59:10.272Z,63.98
2023-04-19T13:00:45.124Z,64.53
2023-04-19T13:02:07.763Z,62.16
2023-04-19T13:03:39.213Z,59.50
2023-04-19T13:05:02.218Z,57.21
2023-04-19T13:06:24.480Z,57.01
2023-04-19T13:07:53.867Z,58.35
2023-04-19T13:09:18.658Z,60.04
2023-04-19T13:10:54.094Z,61.59
2023-04-19T13:12:24.351Z,63.83
2023-04-19T13:13:58.152Z,64.08
2023-04-19T13:15:31.072Z,62.09
2023-04-19T13:16:53.064Z,59.62
2023-04-19T13:18:23.045Z,57.45
2023-04-19T13:19:58.400Z,56.85
2023-04-19T13:21:31.916Z,58.38
2023-04-19T13:23:05.828Z,60.11
2023-04-19T13:24:30.075Z,61.82
2023-04-19T13:25:51.856Z,63.19
2023-04-19T13:27:16.351Z,65.01
2023-04-19T13:28:40.208Z,63.71
2023-04-19T13:30:25.654Z,60.77
2023-04-19T13:31:59.188Z,58.36
2023-04-19T13:33:23.074Z,57.00
2023-04-19T13:34:47.155Z,58.02
2023-04-19T13:36:16.525Z,60.15
2023-04-19T13:37:52.010Z,61.69
2023-04-19T13:39:25.303Z,63.37
2023-04-19T13:40:58.757Z,64.58
2023-04-19T13:42:40.546Z,63.34
2023-04-19T13:44:04.872Z,60.18
2023-04-19T13:45:38.397Z,58.00
2023-04-19T13:47:02.503Z,57.29
2023-04-19T13:48:45.231Z,58.09
2023-04-19T13:50:15.067Z,59.93
2023-04-19T13:51:59.580Z,62.30
2023-04-19T13:53:32.894Z,64.16
2023-04-19T13:54:54.930Z,63.77
2023-04-19T13:56:51.882Z,61.28
2023-04-19T13:58:34.130Z,58.14
2023-04-19T14:00:10.798Z,57.21
2023-04-19T14:01:53.329Z,58.81
2023-04-19T14:03:39.406Z,60.97
2023-04-19T14:05:13.028Z,62.58
2023-04-19T14:06:39.405Z,64.42
2023-04-19T14:08:13.459Z,63.96
2023-04-19T14:09:42.338Z,61.14
2023-04-19T14:11:18.156Z,58.69
2023-04-19T14:12:51.361Z,57.17
2023-04-19T14:14:24.980Z,57.69
2023-04-19T14:15:58.826Z,59.26
2023-04-19T14:17:52.366Z,61.22
2023-04-19T14:19:45.916Z,63.56
2023-04-19T14:21:19.260Z,63.73
2023-04-19T14:23:04.318Z,61.32
2023-04-19T14:24:37.120Z,58.22
2023-04-19T14:26:30.846Z,57.03
2023-04-19T14:28:26.261Z,58.24
2023-04-19T14:30:21.283Z,60.44
2023-04-19T14:32:21.302Z,62.82
2023-04-19T14:34:00.015Z,65.04
2023-04-19T14:35:33.055Z,63.20
2023-04-19T14:37:08.975Z,60.92
2023-04-19T14:38:30.768Z,59.30
2023-04-19T14:40:06.672Z,57.19
2023-04-19T14:41:49.343Z,57.20
2023-04-19T14:43:34.642Z,59.13
2023-04-19T14:45:29.367Z,61.35
2023-04-19T14:47:05.390Z,63.69
2023-04-19T14:48:38.755Z,64.54
2023-04-19T14:50:34.318Z,62.41
2023-04-19T14:52:10.292Z,59.48
2023-04-19T14:53:55.222Z,57.44
2023-04-19T14:55:30.881Z,57.95
2023-04-19T14:57:04.387Z,59.63
2023-04-19T14:58:37.362Z,61.60
2023-04-19T15:00:30.843Z,64.81
2023-04-19T15:02:26.402Z,64.78
2023-04-19T15:04:19.936Z,61.75
2023-04-19T15:05:53.811Z,58.99
2023-04-19T15:07:16.242Z,57.81
2023-04-19T15:08:58.260Z,58.33
2023-04-19T15:10:31.787Z,60.42
2023-04-19T15:11:56.084Z,62.15
2023-04-19T15:13:39.340Z,64.44
2023-04-19T15:15:15.640Z,65.03
2023-04-19T15:16:48.912Z,63.23
2023-04-19T15:18:13.034Z,60.99
2023-04-19T15:19:42.266Z,59.07
2023-04-19T15:21:04.681Z,57.53
2023-04-19T15:22:40.154Z,58.35
2023-04-19T15:24:04.617Z,60.04
2023-04-19T15:25:30.846Z,61.89
2023-04-19T15:26:52.888Z,64.21
2023-04-19T15:28:15.045Z,65.41
2023-04-19T15:29:36.806Z,64.18
2023-04-19T15:31:10.947Z,61.94
2023-04-19T15:32:45.905Z,60.04
2023-04-19T15:34:31.430Z,57.83
2023-04-19T15:36:04.920Z,58.25
2023-04-19T15:37:28.745Z,60.15
2023-04-19T15:39:09.640Z,62.23
2023-04-19T15:40:41.432Z,64.92
2023-04-19T15:42:15.458Z,64.73
2023-04-19T15:43:55.701Z,62.08
2023-04-19T15:45:29.050Z,59.36
2023-04-19T15:47:03.151Z,57.30
2023-04-19T15:48:25.012Z,57.96
2023-04-19T15:49:58.990Z,59.62
2023-04-19T15:51:32.409Z,61.71
2023-04-19T15:52:53.987Z,63.69
2023-04-19T15:54:29.501Z,64.88
2023-04-19T15:56:05.353Z,63.49
2023-04-19T15:57:45.580Z,61.10
2023-04-19T15:59:17.682Z,59.02
2023-04-19T16:00:51.410Z,57.50
2023-04-19T16:02:25.007Z,58.73
2023-04-19T16:03:58.663Z,60.46
2023-04-19T16:05:32.174Z,62.33
2023-04-19T16:07:08.423Z,65.31
2023-04-19T16:08:32.420Z,65.15
2023-04-19T16:10:06.119Z,62.79
2023-04-19T16:11:30.069Z,60.64
2023-04-19T16:13:15.592Z,58.33
2023-04-19T16:15:00.920Z,57.38
2023-04-19T16:16:23.196Z,58.92
2023-04-19T16:17:58.984Z,60.65
2023-04-19T16:19:34.740Z,62.67
2023-04-19T16:21:28.372Z,65.09
2023-04-19T16:23:04.927Z,63.45
2023-04-19T16:24:26.637Z,61.19
2023-04-19T16:26:12.221Z,58.51
2023-04-19T16:27:41.273Z,57.19
2023-04-19T16:29:05.979Z,58.31
2023-04-19T16:30:27.788Z,59.78
2023-04-19T16:31:51.754Z,61.46
2023-04-19T16:33:16.628Z,63.53
2023-04-19T16:34:58.929Z,64.91
2023-04-19T16:36:34.478Z,62.77
2023-04-19T16:38:10.247Z,60.37
2023-04-19T16:39:43.348Z,57.67
2023-04-19T16:41:28.377Z,57.51
2023-04-19T16:43:09.758Z,59.35
2023-04-19T16:44:38.407Z,61.34
2023-04-19T16:46:24.081Z,63.38
2023-04-19T16:48:09.668Z,65.01
2023-04-19T16:49:50.451Z,63.14
2023-04-19T16:51:12.849Z,60.68
2023-04-19T16:52:36.865Z,58.75
2023-04-19T16:54:06.488Z,57.07
2023-04-19T16:55:30.449Z,57.56
2023-04-19T16:57:06.763Z,59.30
2023-04-19T16:58:51.660Z,61.29
2023-04-19T17:00:46.291Z,63.69
2023-04-19T17:02:10.953Z,64.66
2023-04-19T17:03:32.845Z,62.76
2023-04-19T17:04:54.982Z,60.75
2023-04-19T17:06:16.852Z,58.95
2023-04-19T17:07:50.410Z,57.42
2023-04-19T17:09:20.201Z,58.28
2023-04-19T17:11:01.271Z,60.28
2023-04-19T17:12:24.099Z,62.30
2023-04-19T17:13:57.945Z,64.38
2023-04-19T17:15:41.406Z,64.52
2023-04-19T17:17:25.850Z,62.33
2023-04-19T17:18:59.316Z,60.13
2023-04-19T17:20:40.859Z,58.11
2023-04-19T17:22:14.303Z,57.96
2023-04-19T17:23:54.846Z,59.48
2023-04-19T17:25:28.277Z,61.98
2023-04-19T17:27:09.557Z,64.53
2023-04-19T17:28:46.214Z,64.96
2023-04-19T17:30:35.379Z,63.09
2023-04-19T17:34:20.545Z,58.03
2023-04-19T17:36:05.564Z,58.21
2023-04-19T17:37:32.360Z,60.15
2023-04-19T17:39:07.880Z,62.11
2023-04-19T17:40:41.211Z,65.00
2023-04-19T17:42:03.543Z,65.05
2023-04-19T17:43:49.633Z,62.78
2023-04-19T17:45:25.098Z,60.34
2023-04-19T17:47:10.419Z,58.41
2023-04-19T17:48:54.212Z,57.65
2023-04-19T17:50:39.365Z,59.41
2023-04-19T17:52:34.277Z,61.92
2023-04-19T17:53:58.083Z,64.85
2023-04-19T17:55:33.752Z,64.71
2023-04-19T17:57:07.454Z,62.53
2023-04-19T17:58:36.450Z,60.59
2023-04-19T18:00:10.170Z,58.45
2023-04-19T18:01:51.814Z,57.49
2023-04-19T18:03:28.463Z,59.26
2023-04-19T18:05:02.449Z,61.29
2023-04-19T18:06:35.709Z,63.66
2023-04-19T18:08:17.148Z,64.71
2023-04-19T18:09:41.214Z,63.05
2023-04-19T18:11:06.896Z,60.94
2023-04-19T18:12:30.709Z,58.91
2023-04-19T18:14:16.367Z,57.19
2023-04-19T18:15:49.638Z,58.30
2023-04-19T18:17:26.572Z,60.45
2023-04-19T18:18:52.986Z,62.30
2023-04-19T18:20:15.161Z,64.40
2023-04-19T18:21:58.902Z,64.36
2023-04-19T18:23:23.532Z,61.98
2023-04-19T18:24:57.077Z,59.45
2023-04-19T18:26:32.386Z,57.22
2023-04-19T18:27:56.327Z,57.66
2023-04-19T18:29:25.953Z,59.04
2023-04-19T18:30:59.930Z,61.36
2023-04-19T18:32:44.720Z,63.17
2023-04-19T18:34:11.933Z,65.01
2023-04-19T18:35:36.919Z,63.43
2023-04-19T18:37:03.036Z,61.32
2023-04-19T18:38:37.984Z,59.43
2023-04-19T18:40:33.364Z,57.52
2023-04-19T18:42:05.371Z,58.44
2023-04-19T18:43:30.931Z,60.50
2023-04-19T18:45:05.210Z,62.33
2023-04-19T18:47:00.294Z,64.93
2023-04-19T18:48:43.305Z,63.66
2023-04-19T18:50:19.668Z,60.96
2023-04-19T18:51:51.038Z,59.22
2023-04-19T18:53:18.406Z,57.41
2023-04-19T18:54:47.403Z,58.02
2023-04-19T18:56:20.635Z,60.07
2023-04-19T18:57:44.494Z,61.75
2023-04-19T18:59:30.328Z,63.64
2023-04-19T19:01:05.744Z,65.36
2023-04-19T19:02:48.385Z,63.41
2023-04-19T19:04:37.422Z,60.93
2023-04-19T19:06:11.375Z,58.62
2023-04-19T19:07:45.393Z,57.75
2023-04-19T19:09:26.727Z,59.23
2023-04-19T19:12:50.384Z,63.89
2023-04-19T19:14:45.362Z,65.00
2023-04-19T19:16:27.426Z,62.84
2023-04-19T19:17:52.518Z,60.73
2023-04-19T19:19:38.852Z,59.01
2023-04-19T19:21:28.462Z,57.97
2023-04-19T19:23:03.188Z,59.46
2023-04-19T19:24:56.953Z,61.80
2023-04-19T19:26:51.305Z,65.32
2023-04-19T19:28:27.387Z,64.78
2023-04-19T19:30:03.369Z,62.41
2023-04-19T19:31:48.553Z,60.21
2023-04-19T19:33:25.145Z,58.12
2023-04-19T19:34:55.617Z,57.87
2023-04-19T19:36:23.294Z,59.51
2023-04-19T19:37:47.358Z,61.21
2023-04-19T19:39:23.334Z,63.61
2023-04-19T19:41:48.991Z,65.03
2023-04-19T19:42:42.900Z,62.87
2023-04-19T19:44:05.048Z,60.85
2023-04-19T19:45:27.338Z,59.04
2023-04-19T19:46:59.974Z,57.57
2023-04-19T19:48:30.410Z,58.58
2023-04-19T19:50:41.052Z,60.30
2023-04-19T19:51:59.924Z,62.88
2023-04-19T19:53:22.275Z,65.09
2023-04-19T19:54:55.654Z,64.49
2023-04-19T19:56:28.109Z,62.70
2023-04-19T19:59:29.991Z,59.11
2023-04-19T20:01:04.108Z,57.95
2023-04-19T20:02:53.656Z,59.20
2023-04-19T20:04:41.733Z,61.90
2023-04-19T20:09:43.528Z,63.14
2023-04-19T20:11:17.615Z,60.84
2023-04-19T20:12:38.912Z,59.28
2023-04-19T20:14:24.348Z,57.93
2023-04-19T20:16:10.310Z,59.22
2023-04-19T20:17:53.357Z,61.14
2023-04-19T20:19:27.553Z,64.13
2023-04-19T20:21:22.329Z,65.04
2023-04-19T20:22:57.833Z,63.16
2023-04-19T20:24:22.500Z,61.10
2023-04-19T20:25:55.649Z,59.43
2023-04-19T20:27:40.625Z,57.91
2023-04-19T20:29:23.301Z,58.83
2023-04-19T20:30:56.818Z,61.01
2023-04-19T20:32:51.311Z,63.70
2023-04-19T20:34:46.318Z,65.19
2023-04-19T20:36:28.396Z,63.22
2023-04-19T20:38:02.859Z,60.73
2023-04-19T20:39:57.281Z,59.03
2023-04-19T20:41:30.576Z,57.99
2023-04-19T20:42:54.946Z,59.22
2023-04-19T20:44:36.002Z,61.43
2023-04-19T20:46:12.516Z,64.22
2023-04-19T20:47:58.805Z,65.24
2023-04-19T20:49:42.325Z,63.20
2023-04-19T20:51:16.432Z,60.89
2023-04-19T20:52:49.669Z,58.89
2023-04-19T20:54:38.926Z,57.87
2023-04-19T20:56:03.312Z,59.36
2023-04-19T20:57:32.432Z,61.27
2023-04-19T20:59:26.183Z,63.94